sensor_id;sensor_type;location;lat;lon;timestamp;P1;durP1;ratioP1;P2;durP2;ratioP2
60851;SDS011;48553;50.766;2.900;2022-07-22T00:01:29;4.00;;;1.02;;
60851;SDS011;48553;50.766;2.900;2022-07-22T00:04:29;3.17;;;1.10;;
60851;SDS011;48553;50.766;2.900;2022-07-22T00:07:30;7.75;;;1.60;;
60851;SDS011;48553;50.766;2.900;2022-07-22T00:10:30;6.00;;;1.30;;
60851;SDS011;48553;50.766;2.900;2022-07-22T00:13:30;6.30;;;1.30;;
60851;SDS011;48553;50.766;2.900;2022-07-22T00:16:31;6.30;;;1.30;;
60851;SDS011;48553;50.766;2.900;2022-07-22T00:19:32;6.82;;;1.33;;
60851;SDS011;48553;50.766;2.900;2022-07-22T00:22:32;6.43;;;1.38;;
60851;SDS011;48553;50.766;2.900;2022-07-22T00:25:33;4.65;;;1.30;;
60851;SDS011;48553;50.766;2.900;2022-07-22T00:34:55;5.80;;;1.10;;
60851;SDS011;48553;50.766;2.900;2022-07-22T00:37:55;6.45;;;1.20;;
60851;SDS011;48553;50.766;2.900;2022-07-22T00:40:56;6.43;;;1.20;;
60851;SDS011;48553;50.766;2.900;2022-07-22T00:47:01;6.80;;;1.48;;
60851;SDS011;48553;50.766;2.900;2022-07-22T00:50:02;4.63;;;1.30;;
60851;SDS011;48553;50.766;2.900;2022-07-22T00:53:04;7.25;;;1.50;;
60851;SDS011;48553;50.766;2.900;2022-07-22T00:56:05;5.68;;;1.40;;
60851;SDS011;48553;50.766;2.900;2022-07-22T00:59:07;6.10;;;1.55;;
60851;SDS011;48553;50.766;2.900;2022-07-22T01:02:09;5.38;;;1.60;;
60851;SDS011;48553;50.766;2.900;2022-07-22T01:05:10;4.93;;;1.40;;
60851;SDS011;48553;50.766;2.900;2022-07-22T01:08:11;5.88;;;1.50;;
60851;SDS011;48553;50.766;2.900;2022-07-22T01:11:13;7.70;;;1.77;;
60851;SDS011;48553;50.766;2.900;2022-07-22T01:14:18;7.78;;;1.50;;
60851;SDS011;48553;50.766;2.900;2022-07-22T01:17:19;6.95;;;1.42;;
60851;SDS011;48553;50.766;2.900;2022-07-22T01:20:20;3.72;;;1.35;;
60851;SDS011;48553;50.766;2.900;2022-07-22T01:23:21;5.07;;;1.35;;
60851;SDS011;48553;50.766;2.900;2022-07-22T01:26:21;3.92;;;1.58;;
60851;SDS011;48553;50.766;2.900;2022-07-22T01:29:22;5.03;;;1.45;;
60851;SDS011;48553;50.766;2.900;2022-07-22T01:32:22;5.40;;;1.40;;
60851;SDS011;48553;50.766;2.900;2022-07-22T01:35:23;3.35;;;1.27;;
60851;SDS011;48553;50.766;2.900;2022-07-22T01:38:23;6.25;;;1.35;;
60851;SDS011;48553;50.766;2.900;2022-07-22T01:41:24;7.55;;;1.67;;
60851;SDS011;48553;50.766;2.900;2022-07-22T01:44:24;4.65;;;1.30;;
60851;SDS011;48553;50.766;2.900;2022-07-22T01:47:24;6.63;;;1.30;;
60851;SDS011;48553;50.766;2.900;2022-07-22T01:50:25;4.78;;;1.30;;
60851;SDS011;48553;50.766;2.900;2022-07-22T01:53:25;5.72;;;1.45;;
60851;SDS011;48553;50.766;2.900;2022-07-22T01:56:26;5.78;;;1.38;;
60851;SDS011;48553;50.766;2.900;2022-07-22T01:59:26;3.95;;;1.20;;
60851;SDS011;48553;50.766;2.900;2022-07-22T02:02:27;5.10;;;1.25;;
60851;SDS011;48553;50.766;2.900;2022-07-22T02:05:27;5.10;;;1.58;;
60851;SDS011;48553;50.766;2.900;2022-07-22T02:08:28;5.03;;;1.38;;
60851;SDS011;48553;50.766;2.900;2022-07-22T02:11:29;6.78;;;1.40;;
60851;SDS011;48553;50.766;2.900;2022-07-22T02:14:29;5.32;;;1.73;;
60851;SDS011;48553;50.766;2.900;2022-07-22T02:17:30;6.80;;;1.70;;
60851;SDS011;48553;50.766;2.900;2022-07-22T02:20:30;8.38;;;1.75;;
60851;SDS011;48553;50.766;2.900;2022-07-22T02:23:30;6.30;;;1.40;;
60851;SDS011;48553;50.766;2.900;2022-07-22T02:26:31;6.97;;;1.60;;
60851;SDS011;48553;50.766;2.900;2022-07-22T02:29:32;5.82;;;1.55;;
60851;SDS011;48553;50.766;2.900;2022-07-22T02:32:33;4.97;;;1.58;;
60851;SDS011;48553;50.766;2.900;2022-07-22T02:35:33;5.97;;;1.58;;
60851;SDS011;48553;50.766;2.900;2022-07-22T02:38:34;6.07;;;1.77;;
60851;SDS011;48553;50.766;2.900;2022-07-22T02:41:34;7.93;;;1.77;;
60851;SDS011;48553;50.766;2.900;2022-07-22T02:44:35;6.53;;;1.60;;
60851;SDS011;48553;50.766;2.900;2022-07-22T02:47:35;8.45;;;1.80;;
60851;SDS011;48553;50.766;2.900;2022-07-22T02:50:51;6.25;;;1.75;;
60851;SDS011;48553;50.766;2.900;2022-07-22T02:53:52;4.57;;;1.50;;
60851;SDS011;48553;50.766;2.900;2022-07-22T02:56:52;5.65;;;1.88;;
60851;SDS011;48553;50.766;2.900;2022-07-22T02:59:52;4.85;;;1.60;;
60851;SDS011;48553;50.766;2.900;2022-07-22T03:02:53;5.10;;;1.83;;
60851;SDS011;48553;50.766;2.900;2022-07-22T03:05:53;8.57;;;1.85;;
60851;SDS011;48553;50.766;2.900;2022-07-22T03:08:54;8.60;;;1.85;;
60851;SDS011;48553;50.766;2.900;2022-07-22T03:11:54;5.90;;;1.73;;
60851;SDS011;48553;50.766;2.900;2022-07-22T03:14:54;7.22;;;1.60;;
60851;SDS011;48553;50.766;2.900;2022-07-22T03:17:55;7.47;;;1.85;;
60851;SDS011;48553;50.766;2.900;2022-07-22T03:20:55;7.68;;;1.92;;
60851;SDS011;48553;50.766;2.900;2022-07-22T03:23:56;6.72;;;2.05;;
60851;SDS011;48553;50.766;2.900;2022-07-22T03:26:56;4.88;;;2.10;;
60851;SDS011;48553;50.766;2.900;2022-07-22T03:29:57;9.32;;;2.03;;
60851;SDS011;48553;50.766;2.900;2022-07-22T03:32:57;5.35;;;2.00;;
60851;SDS011;48553;50.766;2.900;2022-07-22T03:35:58;7.22;;;1.98;;
60851;SDS011;48553;50.766;2.900;2022-07-22T03:38:58;5.38;;;1.77;;
60851;SDS011;48553;50.766;2.900;2022-07-22T03:41:59;4.85;;;1.90;;
60851;SDS011;48553;50.766;2.900;2022-07-22T03:44:59;6.10;;;2.00;;
60851;SDS011;48553;50.766;2.900;2022-07-22T03:48:00;5.22;;;2.03;;
60851;SDS011;48553;50.766;2.900;2022-07-22T03:51:00;4.95;;;2.00;;
60851;SDS011;48553;50.766;2.900;2022-07-22T03:54:00;6.47;;;2.33;;
60851;SDS011;48553;50.766;2.900;2022-07-22T03:57:01;4.65;;;2.00;;
60851;SDS011;48553;50.766;2.900;2022-07-22T04:00:02;7.18;;;2.20;;
60851;SDS011;48553;50.766;2.900;2022-07-22T04:03:03;7.10;;;2.03;;
60851;SDS011;48553;50.766;2.900;2022-07-22T04:06:04;7.43;;;2.20;;
60851;SDS011;48553;50.766;2.900;2022-07-22T04:09:06;9.43;;;2.35;;
60851;SDS011;48553;50.766;2.900;2022-07-22T04:12:07;6.32;;;2.10;;
60851;SDS011;48553;50.766;2.900;2022-07-22T04:15:07;6.30;;;2.30;;
60851;SDS011;48553;50.766;2.900;2022-07-22T04:18:09;5.65;;;2.00;;
60851;SDS011;48553;50.766;2.900;2022-07-22T04:21:09;7.18;;;1.98;;
60851;SDS011;48553;50.766;2.900;2022-07-22T04:24:10;7.93;;;2.47;;
60851;SDS011;48553;50.766;2.900;2022-07-22T04:27:10;8.02;;;2.13;;
60851;SDS011;48553;50.766;2.900;2022-07-22T04:30:10;7.10;;;2.33;;
60851;SDS011;48553;50.766;2.900;2022-07-22T04:33:11;5.10;;;2.17;;
60851;SDS011;48553;50.766;2.900;2022-07-22T04:36:12;6.75;;;2.30;;
60851;SDS011;48553;50.766;2.900;2022-07-22T04:39:12;6.88;;;2.40;;
60851;SDS011;48553;50.766;2.900;2022-07-22T04:42:12;6.60;;;2.17;;
60851;SDS011;48553;50.766;2.900;2022-07-22T04:45:13;6.18;;;1.88;;
60851;SDS011;48553;50.766;2.900;2022-07-22T04:48:13;5.40;;;2.45;;
60851;SDS011;48553;50.766;2.900;2022-07-22T04:51:14;6.50;;;2.20;;
60851;SDS011;48553;50.766;2.900;2022-07-22T04:54:14;6.03;;;2.25;;
60851;SDS011;48553;50.766;2.900;2022-07-22T04:57:14;6.15;;;2.00;;
60851;SDS011;48553;50.766;2.900;2022-07-22T05:00:15;7.53;;;2.00;;
60851;SDS011;48553;50.766;2.900;2022-07-22T05:03:17;7.03;;;2.05;;
60851;SDS011;48553;50.766;2.900;2022-07-22T05:06:18;6.40;;;2.20;;
60851;SDS011;48553;50.766;2.900;2022-07-22T05:09:18;4.72;;;1.80;;
60851;SDS011;48553;50.766;2.900;2022-07-22T05:12:19;8.07;;;2.00;;
60851;SDS011;48553;50.766;2.900;2022-07-22T05:15:19;4.55;;;1.77;;
60851;SDS011;48553;50.766;2.900;2022-07-22T05:18:20;5.47;;;2.00;;
60851;SDS011;48553;50.766;2.900;2022-07-22T05:21:20;6.07;;;2.10;;
60851;SDS011;48553;50.766;2.900;2022-07-22T05:24:21;5.90;;;2.10;;
60851;SDS011;48553;50.766;2.900;2022-07-22T05:27:21;4.40;;;1.75;;
60851;SDS011;48553;50.766;2.900;2022-07-22T05:30:21;5.35;;;2.15;;
60851;SDS011;48553;50.766;2.900;2022-07-22T05:33:22;6.78;;;2.25;;
60851;SDS011;48553;50.766;2.900;2022-07-22T05:36:22;5.70;;;1.80;;
60851;SDS011;48553;50.766;2.900;2022-07-22T05:39:23;6.75;;;2.22;;
60851;SDS011;48553;50.766;2.900;2022-07-22T05:42:23;5.47;;;2.08;;
60851;SDS011;48553;50.766;2.900;2022-07-22T05:45:24;6.28;;;2.17;;
60851;SDS011;48553;50.766;2.900;2022-07-22T05:48:24;5.72;;;1.92;;
60851;SDS011;48553;50.766;2.900;2022-07-22T05:51:25;5.55;;;1.95;;
60851;SDS011;48553;50.766;2.900;2022-07-22T05:54:25;5.90;;;1.83;;
60851;SDS011;48553;50.766;2.900;2022-07-22T05:57:26;8.95;;;2.15;;
60851;SDS011;48553;50.766;2.900;2022-07-22T06:00:27;5.43;;;2.00;;
60851;SDS011;48553;50.766;2.900;2022-07-22T06:03:27;6.32;;;1.95;;
60851;SDS011;48553;50.766;2.900;2022-07-22T06:06:28;4.10;;;1.90;;
60851;SDS011;48553;50.766;2.900;2022-07-22T06:09:28;5.97;;;1.80;;
60851;SDS011;48553;50.766;2.900;2022-07-22T06:12:29;8.15;;;2.17;;
60851;SDS011;48553;50.766;2.900;2022-07-22T06:15:30;9.20;;;2.40;;
60851;SDS011;48553;50.766;2.900;2022-07-22T06:18:30;7.95;;;2.10;;
60851;SDS011;48553;50.766;2.900;2022-07-22T06:21:31;6.05;;;1.90;;
60851;SDS011;48553;50.766;2.900;2022-07-22T06:24:31;8.00;;;2.00;;
60851;SDS011;48553;50.766;2.900;2022-07-22T06:27:32;6.50;;;2.08;;
60851;SDS011;48553;50.766;2.900;2022-07-22T06:30:32;8.48;;;2.38;;
60851;SDS011;48553;50.766;2.900;2022-07-22T06:33:33;6.40;;;2.10;;
60851;SDS011;48553;50.766;2.900;2022-07-22T06:36:33;7.05;;;2.17;;
60851;SDS011;48553;50.766;2.900;2022-07-22T06:39:34;6.32;;;2.25;;
60851;SDS011;48553;50.766;2.900;2022-07-22T06:42:35;6.20;;;1.80;;
60851;SDS011;48553;50.766;2.900;2022-07-22T06:45:35;6.05;;;2.05;;
60851;SDS011;48553;50.766;2.900;2022-07-22T06:48:36;6.22;;;2.10;;
60851;SDS011;48553;50.766;2.900;2022-07-22T06:51:36;7.00;;;2.20;;
60851;SDS011;48553;50.766;2.900;2022-07-22T06:54:37;5.97;;;1.92;;
60851;SDS011;48553;50.766;2.900;2022-07-22T06:57:37;5.47;;;2.00;;
60851;SDS011;48553;50.766;2.900;2022-07-22T07:00:38;7.13;;;2.20;;
60851;SDS011;48553;50.766;2.900;2022-07-22T07:03:38;6.60;;;2.00;;
60851;SDS011;48553;50.766;2.900;2022-07-22T07:06:38;5.97;;;2.17;;
60851;SDS011;48553;50.766;2.900;2022-07-22T07:09:39;6.57;;;2.42;;
60851;SDS011;48553;50.766;2.900;2022-07-22T07:12:39;7.30;;;2.20;;
60851;SDS011;48553;50.766;2.900;2022-07-22T07:15:40;5.93;;;1.98;;
60851;SDS011;48553;50.766;2.900;2022-07-22T07:18:40;4.85;;;1.90;;
60851;SDS011;48553;50.766;2.900;2022-07-22T07:21:41;6.35;;;1.98;;
60851;SDS011;48553;50.766;2.900;2022-07-22T07:24:41;7.22;;;2.00;;
60851;SDS011;48553;50.766;2.900;2022-07-22T07:27:42;7.18;;;2.05;;
60851;SDS011;48553;50.766;2.900;2022-07-22T07:30:42;5.95;;;1.83;;
60851;SDS011;48553;50.766;2.900;2022-07-22T07:33:43;4.68;;;1.70;;
60851;SDS011;48553;50.766;2.900;2022-07-22T07:36:43;4.82;;;1.70;;
60851;SDS011;48553;50.766;2.900;2022-07-22T07:39:44;4.28;;;1.73;;
60851;SDS011;48553;50.766;2.900;2022-07-22T07:42:44;6.65;;;1.90;;
60851;SDS011;48553;50.766;2.900;2022-07-22T07:45:45;5.82;;;1.73;;
60851;SDS011;48553;50.766;2.900;2022-07-22T07:48:45;3.40;;;1.58;;
60851;SDS011;48553;50.766;2.900;2022-07-22T07:51:48;5.05;;;1.95;;
60851;SDS011;48553;50.766;2.900;2022-07-22T07:54:48;5.85;;;1.90;;
60851;SDS011;48553;50.766;2.900;2022-07-22T07:57:49;5.60;;;1.63;;
60851;SDS011;48553;50.766;2.900;2022-07-22T08:00:50;5.07;;;1.92;;
60851;SDS011;48553;50.766;2.900;2022-07-22T08:03:50;6.03;;;1.80;;
60851;SDS011;48553;50.766;2.900;2022-07-22T08:06:51;3.53;;;1.80;;
60851;SDS011;48553;50.766;2.900;2022-07-22T08:09:51;4.82;;;1.80;;
60851;SDS011;48553;50.766;2.900;2022-07-22T08:12:51;6.18;;;2.13;;
60851;SDS011;48553;50.766;2.900;2022-07-22T08:15:53;4.97;;;2.00;;
60851;SDS011;48553;50.766;2.900;2022-07-22T08:18:53;7.05;;;2.00;;
60851;SDS011;48553;50.766;2.900;2022-07-22T08:21:54;6.57;;;1.83;;
60851;SDS011;48553;50.766;2.900;2022-07-22T08:24:54;5.83;;;2.20;;
60851;SDS011;48553;50.766;2.900;2022-07-22T08:27:54;5.05;;;1.75;;
60851;SDS011;48553;50.766;2.900;2022-07-22T08:30:55;4.70;;;1.70;;
60851;SDS011;48553;50.766;2.900;2022-07-22T08:33:55;4.03;;;1.60;;
60851;SDS011;48553;50.766;2.900;2022-07-22T08:36:56;6.15;;;2.10;;
60851;SDS011;48553;50.766;2.900;2022-07-22T08:39:56;3.88;;;1.55;;
60851;SDS011;48553;50.766;2.900;2022-07-22T08:42:58;3.63;;;1.70;;
60851;SDS011;48553;50.766;2.900;2022-07-22T08:46:02;3.72;;;1.90;;
60851;SDS011;48553;50.766;2.900;2022-07-22T08:49:03;5.82;;;1.88;;
60851;SDS011;48553;50.766;2.900;2022-07-22T08:52:03;6.07;;;2.00;;
60851;SDS011;48553;50.766;2.900;2022-07-22T08:55:05;5.53;;;1.90;;
60851;SDS011;48553;50.766;2.900;2022-07-22T08:58:06;5.45;;;2.10;;
60851;SDS011;48553;50.766;2.900;2022-07-22T09:01:08;5.32;;;1.85;;
60851;SDS011;48553;50.766;2.900;2022-07-22T09:04:10;4.30;;;1.90;;
60851;SDS011;48553;50.766;2.900;2022-07-22T09:07:10;4.60;;;1.88;;
60851;SDS011;48553;50.766;2.900;2022-07-22T09:10:12;5.10;;;2.13;;
60851;SDS011;48553;50.766;2.900;2022-07-22T09:13:17;5.82;;;2.10;;
60851;SDS011;48553;50.766;2.900;2022-07-22T09:16:37;5.50;;;2.00;;
60851;SDS011;48553;50.766;2.900;2022-07-22T09:19:48;5.10;;;2.00;;
60851;SDS011;48553;50.766;2.900;2022-07-22T09:22:49;4.53;;;1.75;;
60851;SDS011;48553;50.766;2.900;2022-07-22T09:25:50;4.68;;;1.90;;
60851;SDS011;48553;50.766;2.900;2022-07-22T09:28:54;4.95;;;1.83;;
60851;SDS011;48553;50.766;2.900;2022-07-22T09:31:55;4.70;;;1.95;;
60851;SDS011;48553;50.766;2.900;2022-07-22T09:35:05;5.88;;;2.03;;
60851;SDS011;48553;50.766;2.900;2022-07-22T09:38:09;5.47;;;2.05;;
60851;SDS011;48553;50.766;2.900;2022-07-22T09:41:11;6.32;;;1.90;;
60851;SDS011;48553;50.766;2.900;2022-07-22T09:44:20;5.03;;;2.10;;
60851;SDS011;48553;50.766;2.900;2022-07-22T09:47:28;6.07;;;2.25;;
60851;SDS011;48553;50.766;2.900;2022-07-22T09:50:30;7.57;;;2.10;;
60851;SDS011;48553;50.766;2.900;2022-07-22T09:53:32;6.68;;;2.30;;
60851;SDS011;48553;50.766;2.900;2022-07-22T09:56:34;5.35;;;2.00;;
60851;SDS011;48553;50.766;2.900;2022-07-22T09:59:35;5.95;;;2.33;;
60851;SDS011;48553;50.766;2.900;2022-07-22T10:02:37;5.28;;;1.98;;
60851;SDS011;48553;50.766;2.900;2022-07-22T10:05:41;6.00;;;1.70;;
60851;SDS011;48553;50.766;2.900;2022-07-22T10:08:42;4.38;;;2.10;;
60851;SDS011;48553;50.766;2.900;2022-07-22T10:11:43;5.65;;;2.20;;
60851;SDS011;48553;50.766;2.900;2022-07-22T10:14:46;5.05;;;1.80;;
60851;SDS011;48553;50.766;2.900;2022-07-22T10:17:49;6.00;;;2.10;;
60851;SDS011;48553;50.766;2.900;2022-07-22T10:21:04;4.90;;;2.10;;
60851;SDS011;48553;50.766;2.900;2022-07-22T10:24:10;5.80;;;2.03;;
60851;SDS011;48553;50.766;2.900;2022-07-22T10:27:12;8.60;;;2.50;;
60851;SDS011;48553;50.766;2.900;2022-07-22T10:30:13;6.30;;;2.20;;
60851;SDS011;48553;50.766;2.900;2022-07-22T10:33:16;5.50;;;2.20;;
60851;SDS011;48553;50.766;2.900;2022-07-22T10:36:30;5.15;;;2.00;;
60851;SDS011;48553;50.766;2.900;2022-07-22T10:39:45;4.47;;;2.10;;
60851;SDS011;48553;50.766;2.900;2022-07-22T10:43:11;6.38;;;1.95;;
60851;SDS011;48553;50.766;2.900;2022-07-22T10:46:12;5.93;;;2.10;;
60851;SDS011;48553;50.766;2.900;2022-07-22T10:49:14;5.70;;;2.08;;
60851;SDS011;48553;50.766;2.900;2022-07-22T10:52:16;5.65;;;2.40;;
60851;SDS011;48553;50.766;2.900;2022-07-22T11:01:33;6.10;;;2.03;;
60851;SDS011;48553;50.766;2.900;2022-07-22T11:04:34;5.85;;;2.40;;
60851;SDS011;48553;50.766;2.900;2022-07-22T11:07:42;6.78;;;2.20;;
60851;SDS011;48553;50.766;2.900;2022-07-22T11:10:47;7.95;;;2.33;;
60851;SDS011;48553;50.766;2.900;2022-07-22T11:13:49;4.50;;;2.00;;
60851;SDS011;48553;50.766;2.900;2022-07-22T11:16:49;7.18;;;2.90;;
60851;SDS011;48553;50.766;2.900;2022-07-22T11:19:51;5.28;;;2.60;;
60851;SDS011;48553;50.766;2.900;2022-07-22T11:22:51;6.55;;;2.63;;
60851;SDS011;48553;50.766;2.900;2022-07-22T11:25:52;8.20;;;2.63;;
60851;SDS011;48553;50.766;2.900;2022-07-22T11:28:57;7.10;;;2.70;;
60851;SDS011;48553;50.766;2.900;2022-07-22T11:31:58;5.88;;;2.10;;
60851;SDS011;48553;50.766;2.900;2022-07-22T11:35:00;4.20;;;2.20;;
60851;SDS011;48553;50.766;2.900;2022-07-22T11:38:00;8.73;;;2.35;;
60851;SDS011;48553;50.766;2.900;2022-07-22T11:41:01;5.88;;;2.28;;
60851;SDS011;48553;50.766;2.900;2022-07-22T11:44:02;9.52;;;2.58;;
60851;SDS011;48553;50.766;2.900;2022-07-22T11:47:03;6.47;;;2.60;;
60851;SDS011;48553;50.766;2.900;2022-07-22T11:50:05;6.72;;;2.53;;
60851;SDS011;48553;50.766;2.900;2022-07-22T11:53:06;6.00;;;2.10;;
60851;SDS011;48553;50.766;2.900;2022-07-22T11:56:10;4.32;;;2.40;;
60851;SDS011;48553;50.766;2.900;2022-07-22T11:59:12;6.10;;;2.45;;
60851;SDS011;48553;50.766;2.900;2022-07-22T12:02:14;4.85;;;2.15;;
60851;SDS011;48553;50.766;2.900;2022-07-22T12:05:15;5.47;;;2.58;;
60851;SDS011;48553;50.766;2.900;2022-07-22T12:08:16;5.60;;;2.35;;
60851;SDS011;48553;50.766;2.900;2022-07-22T12:11:17;6.18;;;2.38;;
60851;SDS011;48553;50.766;2.900;2022-07-22T12:14:20;6.80;;;2.42;;
60851;SDS011;48553;50.766;2.900;2022-07-22T12:17:30;6.20;;;2.25;;
60851;SDS011;48553;50.766;2.900;2022-07-22T12:20:31;5.72;;;2.40;;
60851;SDS011;48553;50.766;2.900;2022-07-22T12:23:31;4.43;;;2.30;;
60851;SDS011;48553;50.766;2.900;2022-07-22T12:26:38;5.70;;;2.35;;
60851;SDS011;48553;50.766;2.900;2022-07-22T12:36:04;10.27;;;8.10;;
60851;SDS011;48553;50.766;2.900;2022-07-22T12:39:11;11.57;;;7.93;;
60851;SDS011;48553;50.766;2.900;2022-07-22T12:42:20;5.75;;;2.92;;
60851;SDS011;48553;50.766;2.900;2022-07-22T12:45:21;8.93;;;5.75;;
60851;SDS011;48553;50.766;2.900;2022-07-22T12:48:21;6.93;;;4.38;;
60851;SDS011;48553;50.766;2.900;2022-07-22T12:51:28;8.45;;;4.30;;
60851;SDS011;48553;50.766;2.900;2022-07-22T12:54:28;19.55;;;17.58;;
60851;SDS011;48553;50.766;2.900;2022-07-22T12:57:29;12.15;;;9.63;;
60851;SDS011;48553;50.766;2.900;2022-07-22T13:00:31;17.05;;;14.43;;
60851;SDS011;48553;50.766;2.900;2022-07-22T13:03:37;7.57;;;4.03;;
60851;SDS011;48553;50.766;2.900;2022-07-22T13:06:37;7.53;;;5.10;;
60851;SDS011;48553;50.766;2.900;2022-07-22T13:09:37;20.65;;;17.25;;
60851;SDS011;48553;50.766;2.900;2022-07-22T13:12:38;14.57;;;13.02;;
60851;SDS011;48553;50.766;2.900;2022-07-22T13:15:39;13.38;;;9.35;;
60851;SDS011;48553;50.766;2.900;2022-07-22T13:18:40;10.23;;;6.35;;
60851;SDS011;48553;50.766;2.900;2022-07-22T13:21:40;11.40;;;7.63;;
60851;SDS011;48553;50.766;2.900;2022-07-22T13:24:41;14.30;;;12.07;;
60851;SDS011;48553;50.766;2.900;2022-07-22T13:27:41;20.27;;;18.13;;
60851;SDS011;48553;50.766;2.900;2022-07-22T13:30:42;13.25;;;9.63;;
60851;SDS011;48553;50.766;2.900;2022-07-22T13:33:42;23.60;;;21.15;;
60851;SDS011;48553;50.766;2.900;2022-07-22T13:36:42;21.40;;;19.15;;
60851;SDS011;48553;50.766;2.900;2022-07-22T13:39:43;18.08;;;15.73;;
60851;SDS011;48553;50.766;2.900;2022-07-22T13:42:45;7.80;;;5.20;;
60851;SDS011;48553;50.766;2.900;2022-07-22T13:45:46;10.55;;;6.50;;
60851;SDS011;48553;50.766;2.900;2022-07-22T13:48:46;13.88;;;8.93;;
60851;SDS011;48553;50.766;2.900;2022-07-22T13:51:47;11.10;;;8.27;;
60851;SDS011;48553;50.766;2.900;2022-07-22T13:54:47;11.82;;;7.07;;
60851;SDS011;48553;50.766;2.900;2022-07-22T13:57:49;13.20;;;8.95;;
60851;SDS011;48553;50.766;2.900;2022-07-22T14:00:50;9.85;;;6.90;;
60851;SDS011;48553;50.766;2.900;2022-07-22T14:03:51;13.10;;;9.00;;
60851;SDS011;48553;50.766;2.900;2022-07-22T14:06:51;11.98;;;8.02;;
60851;SDS011;48553;50.766;2.900;2022-07-22T14:09:52;12.15;;;7.20;;
60851;SDS011;48553;50.766;2.900;2022-07-22T14:12:52;10.23;;;7.03;;
60851;SDS011;48553;50.766;2.900;2022-07-22T14:15:53;11.90;;;8.07;;
60851;SDS011;48553;50.766;2.900;2022-07-22T14:18:53;11.30;;;8.00;;
60851;SDS011;48553;50.766;2.900;2022-07-22T14:21:54;10.05;;;7.20;;
60851;SDS011;48553;50.766;2.900;2022-07-22T14:24:54;9.57;;;7.10;;
60851;SDS011;48553;50.766;2.900;2022-07-22T14:27:55;9.68;;;6.38;;
60851;SDS011;48553;50.766;2.900;2022-07-22T14:30:55;11.70;;;8.57;;
60851;SDS011;48553;50.766;2.900;2022-07-22T14:33:56;13.13;;;8.73;;
60851;SDS011;48553;50.766;2.900;2022-07-22T14:36:56;12.40;;;8.20;;
60851;SDS011;48553;50.766;2.900;2022-07-22T14:39:57;12.05;;;8.63;;
60851;SDS011;48553;50.766;2.900;2022-07-22T14:42:58;11.73;;;8.25;;
60851;SDS011;48553;50.766;2.900;2022-07-22T14:45:58;14.70;;;10.85;;
60851;SDS011;48553;50.766;2.900;2022-07-22T14:48:59;16.38;;;10.65;;
60851;SDS011;48553;50.766;2.900;2022-07-22T14:52:00;11.15;;;8.38;;
60851;SDS011;48553;50.766;2.900;2022-07-22T14:55:01;11.73;;;8.77;;
60851;SDS011;48553;50.766;2.900;2022-07-22T14:58:02;22.25;;;16.15;;
60851;SDS011;48553;50.766;2.900;2022-07-22T15:01:02;15.70;;;11.13;;
60851;SDS011;48553;50.766;2.900;2022-07-22T15:04:02;43.22;;;36.33;;
60851;SDS011;48553;50.766;2.900;2022-07-22T15:07:03;20.40;;;17.88;;
60851;SDS011;48553;50.766;2.900;2022-07-22T15:10:04;16.33;;;12.05;;
60851;SDS011;48553;50.766;2.900;2022-07-22T15:13:04;14.20;;;11.60;;
60851;SDS011;48553;50.766;2.900;2022-07-22T15:16:05;14.75;;;10.65;;
60851;SDS011;48553;50.766;2.900;2022-07-22T15:19:05;17.50;;;14.95;;
60851;SDS011;48553;50.766;2.900;2022-07-22T15:22:06;23.55;;;18.25;;
60851;SDS011;48553;50.766;2.900;2022-07-22T15:25:06;13.15;;;9.98;;
60851;SDS011;48553;50.766;2.900;2022-07-22T15:28:07;31.75;;;28.33;;
60851;SDS011;48553;50.766;2.900;2022-07-22T15:31:07;12.55;;;9.13;;
60851;SDS011;48553;50.766;2.900;2022-07-22T15:34:08;16.08;;;10.50;;
60851;SDS011;48553;50.766;2.900;2022-07-22T15:37:08;33.22;;;25.85;;
60851;SDS011;48553;50.766;2.900;2022-07-22T15:40:09;16.25;;;12.35;;
60851;SDS011;48553;50.766;2.900;2022-07-22T15:43:11;51.17;;;42.13;;
60851;SDS011;48553;50.766;2.900;2022-07-22T15:46:12;15.70;;;12.95;;
60851;SDS011;48553;50.766;2.900;2022-07-22T15:49:12;30.70;;;23.23;;
60851;SDS011;48553;50.766;2.900;2022-07-22T15:52:13;21.20;;;16.15;;
60851;SDS011;48553;50.766;2.900;2022-07-22T15:55:14;12.98;;;9.88;;
60851;SDS011;48553;50.766;2.900;2022-07-22T15:58:16;11.15;;;8.82;;
60851;SDS011;48553;50.766;2.900;2022-07-22T16:01:35;22.17;;;15.32;;
60851;SDS011;48553;50.766;2.900;2022-07-22T16:04:35;13.07;;;9.43;;
60851;SDS011;48553;50.766;2.900;2022-07-22T16:07:36;10.88;;;8.52;;
60851;SDS011;48553;50.766;2.900;2022-07-22T16:10:37;11.50;;;8.98;;
60851;SDS011;48553;50.766;2.900;2022-07-22T16:13:38;11.40;;;7.72;;
60851;SDS011;48553;50.766;2.900;2022-07-22T16:16:38;12.00;;;7.18;;
60851;SDS011;48553;50.766;2.900;2022-07-22T16:19:38;12.82;;;7.63;;
60851;SDS011;48553;50.766;2.900;2022-07-22T16:22:39;10.73;;;8.07;;
60851;SDS011;48553;50.766;2.900;2022-07-22T16:25:39;10.13;;;6.88;;
60851;SDS011;48553;50.766;2.900;2022-07-22T16:28:40;11.07;;;7.40;;
60851;SDS011;48553;50.766;2.900;2022-07-22T16:31:45;9.85;;;8.32;;
60851;SDS011;48553;50.766;2.900;2022-07-22T16:34:46;11.50;;;7.18;;
60851;SDS011;48553;50.766;2.900;2022-07-22T16:37:46;9.95;;;6.57;;
60851;SDS011;48553;50.766;2.900;2022-07-22T16:40:46;10.07;;;6.45;;
60851;SDS011;48553;50.766;2.900;2022-07-22T16:43:47;9.57;;;6.32;;
60851;SDS011;48553;50.766;2.900;2022-07-22T16:46:47;10.68;;;5.75;;
60851;SDS011;48553;50.766;2.900;2022-07-22T16:49:48;8.35;;;4.47;;
60851;SDS011;48553;50.766;2.900;2022-07-22T16:52:48;7.07;;;4.07;;
60851;SDS011;48553;50.766;2.900;2022-07-22T16:55:49;6.15;;;3.97;;
60851;SDS011;48553;50.766;2.900;2022-07-22T16:58:49;5.72;;;3.15;;
60851;SDS011;48553;50.766;2.900;2022-07-22T17:01:50;6.28;;;3.10;;
60851;SDS011;48553;50.766;2.900;2022-07-22T17:04:50;5.32;;;2.75;;
60851;SDS011;48553;50.766;2.900;2022-07-22T17:07:50;6.05;;;2.72;;
60851;SDS011;48553;50.766;2.900;2022-07-22T17:10:51;4.47;;;2.58;;
60851;SDS011;48553;50.766;2.900;2022-07-22T17:13:51;6.63;;;2.50;;
60851;SDS011;48553;50.766;2.900;2022-07-22T17:16:52;5.97;;;2.75;;
60851;SDS011;48553;50.766;2.900;2022-07-22T17:19:52;3.67;;;2.42;;
60851;SDS011;48553;50.766;2.900;2022-07-22T17:22:53;3.92;;;2.33;;
60851;SDS011;48553;50.766;2.900;2022-07-22T17:25:53;5.55;;;2.60;;
60851;SDS011;48553;50.766;2.900;2022-07-22T17:28:54;5.95;;;2.50;;
60851;SDS011;48553;50.766;2.900;2022-07-22T17:31:54;7.00;;;2.53;;
60851;SDS011;48553;50.766;2.900;2022-07-22T17:34:55;6.65;;;2.55;;
60851;SDS011;48553;50.766;2.900;2022-07-22T17:37:55;4.72;;;2.33;;
60851;SDS011;48553;50.766;2.900;2022-07-22T17:40:55;5.53;;;2.33;;
60851;SDS011;48553;50.766;2.900;2022-07-22T17:43:56;4.30;;;2.28;;
60851;SDS011;48553;50.766;2.900;2022-07-22T17:46:57;5.70;;;2.50;;
60851;SDS011;48553;50.766;2.900;2022-07-22T17:49:57;4.82;;;2.40;;
60851;SDS011;48553;50.766;2.900;2022-07-22T17:52:57;4.78;;;2.30;;
60851;SDS011;48553;50.766;2.900;2022-07-22T17:55:58;4.78;;;2.90;;
60851;SDS011;48553;50.766;2.900;2022-07-22T17:58:59;6.28;;;2.25;;
60851;SDS011;48553;50.766;2.900;2022-07-22T18:02:00;5.68;;;2.38;;
60851;SDS011;48553;50.766;2.900;2022-07-22T18:05:01;3.92;;;2.03;;
60851;SDS011;48553;50.766;2.900;2022-07-22T18:08:01;5.18;;;2.47;;
60851;SDS011;48553;50.766;2.900;2022-07-22T18:11:02;5.18;;;2.17;;
60851;SDS011;48553;50.766;2.900;2022-07-22T18:14:02;4.88;;;2.17;;
60851;SDS011;48553;50.766;2.900;2022-07-22T18:17:03;4.35;;;2.30;;
60851;SDS011;48553;50.766;2.900;2022-07-22T18:20:03;5.35;;;2.50;;
60851;SDS011;48553;50.766;2.900;2022-07-22T18:23:05;6.72;;;2.40;;
60851;SDS011;48553;50.766;2.900;2022-07-22T18:26:05;4.15;;;2.22;;
60851;SDS011;48553;50.766;2.900;2022-07-22T18:29:05;4.85;;;2.45;;